createdAt,value
2018-07-03T00:00:00.079Z,18.17
2018-07-03T00:01:00.064Z,18.03
2018-07-03T00:02:00.039Z,18.07
2018-07-03T00:03:00.029Z,18.00
2018-07-03T00:04:00.014Z,17.96
2018-07-03T00:04:59.990Z,17.95
2018-07-03T00:05:59.988Z,17.92
2018-07-03T00:06:59.960Z,17.93
2018-07-03T00:07:59.968Z,17.97
2018-07-03T00:08:59.937Z,17.96
2018-07-03T00:09:59.930Z,18.02
2018-07-03T00:10:59.912Z,17.95
2018-07-03T00:11:59.896Z,17.86
2018-07-03T00:12:59.890Z,17.82
2018-07-03T00:13:59.870Z,17.87
2018-07-03T00:14:59.867Z,17.81
2018-07-03T00:15:59.847Z,17.78
2018-07-03T00:16:59.977Z,17.79
2018-07-03T00:17:59.817Z,17.72
2018-07-03T00:18:59.804Z,17.75
2018-07-03T00:19:59.785Z,17.74
2018-07-03T00:20:59.771Z,17.75
2018-07-03T00:21:59.763Z,17.72
2018-07-03T00:22:59.745Z,17.74
2018-07-03T00:23:59.736Z,17.72
2018-07-03T00:24:59.727Z,17.75
2018-07-03T00:25:59.707Z,17.75
2018-07-03T00:26:59.692Z,17.74
2018-07-03T00:27:59.673Z,17.75
2018-07-03T00:28:59.666Z,17.79
2018-07-03T00:29:59.655Z,17.71
2018-07-03T00:30:59.639Z,17.66
2018-07-03T00:31:59.633Z,17.64
2018-07-03T00:32:59.612Z,17.59
2018-07-03T00:33:59.593Z,17.56
2018-07-03T00:34:59.578Z,17.51
2018-07-03T00:35:59.669Z,17.43
2018-07-03T00:36:59.550Z,17.46
2018-07-03T00:37:59.540Z,17.55
2018-07-03T00:38:59.529Z,17.41
2018-07-03T00:39:59.511Z,17.48
2018-07-03T00:40:59.498Z,17.51
2018-07-03T00:41:59.492Z,17.49
2018-07-03T00:42:59.470Z,17.51
2018-07-03T00:43:59.455Z,17.43
2018-07-03T00:44:59.443Z,17.40
2018-07-03T00:45:59.430Z,17.40
2018-07-03T00:46:59.415Z,17.37
2018-07-03T00:47:59.410Z,17.38
2018-07-03T00:48:59.391Z,17.33
2018-07-03T00:49:59.375Z,17.25
2018-07-03T00:50:59.368Z,17.23
2018-07-03T00:51:59.350Z,17.25
2018-07-03T00:52:59.333Z,17.21
2018-07-03T00:53:59.320Z,17.26
2018-07-03T00:54:59.356Z,17.16
2018-07-03T00:55:59.297Z,17.21
2018-07-03T00:56:59.275Z,17.14
2018-07-03T00:57:59.264Z,17.06
2018-07-03T00:58:59.256Z,17.07
2018-07-03T00:59:59.234Z,17.08
2018-07-03T01:00:59.221Z,17.11
2018-07-03T01:01:59.208Z,17.16
2018-07-03T01:02:59.197Z,17.07
2018-07-03T01:03:59.186Z,17.01
2018-07-03T01:04:59.167Z,17.01
2018-07-03T01:05:59.156Z,17.06
2018-07-03T01:06:59.144Z,16.83
2018-07-03T01:07:59.124Z,16.93
2018-07-03T01:08:59.113Z,16.88
2018-07-03T01:09:59.096Z,16.93
2018-07-03T01:10:59.087Z,16.85
2018-07-03T01:11:59.072Z,16.82
2018-07-03T01:12:59.057Z,16.70
2018-07-03T01:13:59.041Z,16.73
2018-07-03T01:14:59.036Z,16.60
2018-07-03T01:15:59.040Z,16.58
2018-07-03T01:16:59.005Z,16.46
2018-07-03T01:17:58.985Z,16.41
2018-07-03T01:18:59.025Z,16.27
2018-07-03T01:19:58.969Z,16.24
2018-07-03T01:20:58.947Z,16.17
2018-07-03T01:21:58.930Z,16.17
2018-07-03T01:22:58.925Z,16.02
2018-07-03T01:23:58.908Z,16.05
2018-07-03T01:24:58.892Z,16.11
2018-07-03T01:25:58.882Z,16.05
2018-07-03T01:26:58.864Z,16.05
2018-07-03T01:27:58.850Z,16.12
2018-07-03T01:28:58.835Z,16.09
2018-07-03T01:29:58.822Z,16.09
2018-07-03T01:30:58.809Z,16.11
2018-07-03T01:31:58.800Z,16.20
2018-07-03T01:32:58.781Z,16.14
2018-07-03T01:33:58.764Z,16.11
2018-07-03T01:34:58.919Z,16.14
2018-07-03T01:35:58.746Z,16.05
2018-07-03T01:36:58.729Z,16.07
2018-07-03T01:37:58.821Z,16.04
2018-07-03T01:38:58.698Z,16.04
2018-07-03T01:39:58.679Z,16.01
2018-07-03T01:40:58.665Z,16.07
2018-07-03T01:41:58.652Z,16.07
2018-07-03T01:42:58.638Z,16.05
2018-07-03T01:43:58.626Z,16.07
2018-07-03T01:44:58.613Z,16.09
2018-07-03T01:45:58.598Z,16.12
2018-07-03T01:46:58.590Z,16.09
2018-07-03T01:47:58.577Z,16.12
2018-07-03T01:48:58.553Z,16.04
2018-07-03T01:49:58.541Z,16.00
2018-07-03T01:50:58.530Z,16.01
2018-07-03T01:51:58.518Z,15.93
2018-07-03T01:52:58.498Z,15.96
2018-07-03T01:53:58.494Z,15.90
2018-07-03T01:54:58.469Z,15.87
2018-07-03T01:55:58.456Z,15.89
2018-07-03T01:56:58.440Z,15.94
2018-07-03T01:57:58.425Z,15.84
2018-07-03T01:58:58.459Z,15.69
2018-07-03T01:59:58.399Z,15.80
2018-07-03T02:00:58.385Z,15.75
2018-07-03T02:01:58.425Z,15.65
2018-07-03T02:02:58.354Z,15.71
2018-07-03T02:03:58.342Z,15.65
2018-07-03T02:04:58.328Z,15.60
2018-07-03T02:05:58.313Z,15.62
2018-07-03T02:06:58.303Z,15.53
2018-07-03T02:07:58.286Z,15.46
2018-07-03T02:08:58.281Z,15.59
2018-07-03T02:09:58.258Z,15.62
2018-07-03T02:10:58.248Z,15.62
2018-07-03T02:11:58.235Z,15.64
2018-07-03T02:12:58.214Z,15.62
2018-07-03T02:13:58.198Z,15.44
2018-07-03T02:14:58.186Z,15.35
2018-07-03T02:15:58.172Z,15.41
2018-07-03T02:16:58.157Z,15.35
2018-07-03T02:17:58.147Z,15.25
2018-07-03T02:18:58.131Z,15.14
2018-07-03T02:19:58.114Z,14.94
2018-07-03T02:20:58.147Z,14.96
2018-07-03T02:21:58.084Z,14.89
2018-07-03T02:22:58.069Z,14.80
2018-07-03T02:23:58.059Z,14.84
2018-07-03T02:24:58.042Z,14.75
2018-07-03T02:25:58.027Z,14.95
2018-07-03T02:26:58.012Z,15.07
2018-07-03T02:27:58.003Z,15.09
2018-07-03T02:28:57.985Z,15.13
2018-07-03T02:29:57.972Z,15.06
2018-07-03T02:30:57.956Z,15.01
2018-07-03T02:31:57.940Z,15.01
2018-07-03T02:32:57.927Z,15.11
2018-07-03T02:33:57.915Z,15.06
2018-07-03T02:34:57.902Z,14.98
2018-07-03T02:35:57.886Z,14.95
2018-07-03T02:36:57.975Z,14.84
2018-07-03T02:37:57.870Z,14.89
2018-07-03T02:38:57.838Z,14.92
2018-07-03T02:39:57.826Z,15.03
2018-07-03T02:40:57.812Z,15.17
2018-07-03T02:41:57.807Z,15.29
2018-07-03T02:42:57.786Z,15.35
2018-07-03T02:43:57.767Z,15.35
2018-07-03T02:44:57.806Z,15.27
2018-07-03T02:45:57.735Z,15.23
2018-07-03T02:46:57.736Z,15.11
2018-07-03T02:47:57.712Z,15.17
2018-07-03T02:48:57.696Z,15.14
2018-07-03T02:49:57.681Z,15.11
2018-07-03T02:50:57.665Z,15.16
2018-07-03T02:51:57.655Z,15.19
2018-07-03T02:52:57.636Z,15.14
2018-07-03T02:53:57.625Z,15.16
2018-07-03T02:54:57.608Z,14.99
2018-07-03T02:55:57.592Z,15.03
2018-07-03T02:56:57.577Z,15.03
2018-07-03T02:57:57.563Z,15.07
2018-07-03T02:58:57.548Z,15.06
2018-07-03T02:59:57.535Z,14.91
2018-07-03T03:00:57.522Z,14.92
2018-07-03T03:01:57.507Z,14.95
2018-07-03T03:02:57.491Z,14.91
2018-07-03T03:03:57.576Z,14.84
2018-07-03T03:04:57.459Z,14.72
2018-07-03T03:05:57.445Z,14.69
2018-07-03T03:06:57.486Z,14.58
2018-07-03T03:07:57.418Z,14.64
2018-07-03T03:08:57.414Z,14.51
2018-07-03T03:09:57.389Z,14.58
2018-07-03T03:10:57.377Z,14.43
2018-07-03T03:11:57.362Z,14.45
2018-07-03T03:12:57.347Z,14.35
2018-07-03T03:13:57.345Z,14.25
2018-07-03T03:14:57.315Z,14.29
2018-07-03T03:15:57.302Z,14.24
2018-07-03T03:16:57.292Z,14.27
2018-07-03T03:17:57.277Z,14.27
2018-07-03T03:18:57.258Z,14.24
2018-07-03T03:19:57.309Z,14.17
2018-07-03T03:20:57.231Z,14.09
2018-07-03T03:21:57.212Z,14.14
2018-07-03T03:22:57.302Z,14.09
2018-07-03T03:23:57.183Z,14.20
2018-07-03T03:24:57.173Z,14.06
2018-07-03T03:25:57.155Z,14.20
2018-07-03T03:26:57.142Z,14.37
2018-07-03T03:27:57.126Z,14.46
2018-07-03T03:28:57.110Z,14.61
2018-07-03T03:29:57.092Z,14.52
2018-07-03T03:30:57.135Z,14.62
2018-07-03T03:31:57.067Z,14.70
2018-07-03T03:32:57.055Z,14.72
2018-07-03T03:33:57.036Z,14.77
2018-07-03T03:34:57.022Z,14.89
2018-07-03T03:35:57.005Z,14.96
2018-07-03T03:36:56.992Z,14.91
2018-07-03T03:37:56.976Z,15.06
2018-07-03T03:38:56.966Z,15.03
2018-07-03T03:39:56.947Z,15.13
2018-07-03T03:40:56.935Z,14.95
2018-07-03T03:41:56.922Z,15.06
2018-07-03T03:42:56.904Z,14.94
2018-07-03T03:43:56.952Z,14.72
2018-07-03T03:44:56.875Z,14.69
2018-07-03T03:45:56.857Z,14.60
2018-07-03T03:46:56.946Z,14.55
2018-07-03T03:47:56.839Z,14.61
2018-07-03T03:48:56.816Z,14.64
2018-07-03T03:49:56.800Z,14.50
2018-07-03T03:50:56.786Z,14.65
2018-07-03T03:51:56.769Z,14.69
2018-07-03T03:52:56.753Z,14.77
2018-07-03T03:53:56.758Z,14.69
2018-07-03T03:54:56.725Z,14.75
2018-07-03T03:55:56.720Z,14.84
2018-07-03T03:56:56.695Z,14.75
2018-07-03T03:57:56.679Z,14.89
2018-07-03T03:58:56.665Z,15.01
2018-07-03T03:59:56.658Z,14.92
2018-07-03T04:00:56.757Z,14.96
2018-07-03T04:01:56.626Z,14.92
2018-07-03T04:02:56.740Z,14.95
2018-07-03T04:03:56.593Z,14.91
2018-07-03T04:04:56.581Z,14.64
2018-07-03T04:05:56.580Z,14.62
2018-07-03T04:06:56.547Z,14.52
2018-07-03T04:07:56.532Z,14.58
2018-07-03T04:08:56.518Z,14.45
2018-07-03T04:09:56.505Z,14.46
2018-07-03T04:10:56.493Z,14.50
2018-07-03T04:11:56.480Z,14.57
2018-07-03T04:12:56.461Z,14.62
2018-07-03T04:13:56.449Z,14.55
2018-07-03T04:14:56.428Z,14.60
2018-07-03T04:15:56.413Z,14.72
2018-07-03T04:16:56.411Z,14.75
2018-07-03T04:17:56.387Z,14.95
2018-07-03T04:18:56.379Z,14.98
2018-07-03T04:19:56.356Z,15.02
2018-07-03T04:20:56.341Z,15.10
2018-07-03T04:21:56.326Z,15.27
2018-07-03T04:22:56.316Z,15.34
2018-07-03T04:23:56.303Z,15.49
2018-07-03T04:24:56.283Z,15.64
2018-07-03T04:25:56.266Z,15.53
2018-07-03T04:26:56.255Z,15.64
2018-07-03T04:27:56.237Z,15.51
2018-07-03T04:28:56.225Z,15.41
2018-07-03T04:29:56.215Z,15.35
2018-07-03T04:30:56.193Z,15.36
2018-07-03T04:31:56.185Z,15.39
2018-07-03T04:32:56.210Z,15.34
2018-07-03T04:33:56.172Z,15.43
2018-07-03T04:34:56.137Z,15.54
2018-07-03T04:35:56.121Z,15.49
2018-07-03T04:36:56.108Z,15.53
2018-07-03T04:37:56.092Z,15.59
2018-07-03T04:38:56.078Z,15.53
2018-07-03T04:39:56.065Z,15.59
2018-07-03T04:40:56.046Z,15.47
2018-07-03T04:41:56.031Z,15.38
2018-07-03T04:42:56.016Z,15.38
2018-07-03T04:43:56.001Z,15.36
2018-07-03T04:44:55.985Z,15.51
2018-07-03T04:45:55.970Z,15.50
2018-07-03T04:46:56.044Z,15.43
2018-07-03T04:47:55.943Z,15.67
2018-07-03T04:48:55.980Z,15.68
2018-07-03T04:49:55.911Z,15.72
2018-07-03T04:50:55.898Z,15.78
2018-07-03T04:51:55.935Z,15.97
2018-07-03T04:52:55.866Z,16.02
2018-07-03T04:53:55.856Z,16.11
2018-07-03T04:54:55.839Z,16.09
2018-07-03T04:55:55.827Z,16.04
2018-07-03T04:56:55.809Z,16.14
2018-07-03T04:57:55.796Z,16.09
2018-07-03T04:58:55.784Z,16.09
2018-07-03T04:59:55.762Z,16.21
2018-07-03T05:00:55.748Z,16.20
2018-07-03T05:01:55.737Z,16.24
2018-07-03T05:02:55.729Z,16.25
2018-07-03T05:03:55.705Z,16.27
2018-07-03T05:04:55.691Z,16.27
2018-07-03T05:05:55.676Z,16.33
2018-07-03T05:06:55.659Z,16.48
2018-07-03T05:07:55.654Z,16.52
2018-07-03T05:08:55.638Z,16.56
2018-07-03T05:09:55.614Z,16.61
2018-07-03T05:10:55.610Z,16.66
2018-07-03T05:11:55.589Z,16.68
2018-07-03T05:12:55.575Z,16.70
2018-07-03T05:13:55.573Z,16.82
2018-07-03T05:14:55.541Z,16.79
2018-07-03T05:15:55.625Z,16.91
2018-07-03T05:16:55.517Z,16.96
2018-07-03T05:17:55.504Z,17.01
2018-07-03T05:18:55.493Z,17.00
2018-07-03T05:19:55.472Z,17.03
2018-07-03T05:20:55.463Z,17.11
2018-07-03T05:21:55.439Z,17.06
2018-07-03T05:22:55.425Z,17.08
2018-07-03T05:23:55.413Z,17.06
2018-07-03T05:24:55.400Z,17.11
2018-07-03T05:25:55.384Z,17.21
2018-07-03T05:26:55.368Z,17.18
2018-07-03T05:27:55.356Z,17.15
2018-07-03T05:28:55.336Z,17.22
2018-07-03T05:29:55.326Z,17.22
2018-07-03T05:30:55.310Z,17.34
2018-07-03T05:31:55.299Z,17.28
2018-07-03T05:32:55.279Z,17.34
2018-07-03T05:33:55.268Z,17.48
2018-07-03T05:34:55.304Z,17.46
2018-07-03T05:35:55.242Z,17.48
2018-07-03T05:36:55.222Z,17.48
2018-07-03T05:37:55.208Z,17.37
2018-07-03T05:38:55.194Z,17.46
2018-07-03T05:39:55.246Z,17.51
2018-07-03T05:40:55.170Z,17.58
2018-07-03T05:41:55.155Z,17.58
2018-07-03T05:42:55.154Z,17.41
2018-07-03T05:43:55.124Z,17.41
2018-07-03T05:44:55.109Z,17.44
2018-07-03T05:45:55.098Z,17.58
2018-07-03T05:46:55.079Z,17.71
2018-07-03T05:47:55.070Z,17.71
2018-07-03T05:48:55.053Z,17.72
2018-07-03T05:49:55.037Z,17.74
2018-07-03T05:50:55.124Z,17.75
2018-07-03T05:51:55.008Z,17.82
2018-07-03T05:52:54.996Z,17.93
2018-07-03T05:53:54.984Z,17.95
2018-07-03T05:54:54.967Z,17.95
2018-07-03T05:55:54.952Z,17.87
2018-07-03T05:56:54.949Z,17.92
2018-07-03T05:57:54.923Z,17.81
2018-07-03T05:58:54.967Z,17.81
2018-07-03T05:59:54.893Z,17.81
2018-07-03T06:00:54.877Z,17.81
2018-07-03T06:01:54.868Z,17.99
2018-07-03T06:02:54.851Z,17.99
2018-07-03T06:03:54.858Z,18.00
2018-07-03T06:04:54.830Z,17.97
2018-07-03T06:05:54.810Z,17.97
2018-07-03T06:06:54.800Z,17.96
2018-07-03T06:07:54.782Z,17.93
2018-07-03T06:08:54.768Z,18.11
2018-07-03T06:09:54.752Z,18.11
2018-07-03T06:10:54.738Z,18.07
2018-07-03T06:11:54.726Z,18.10
2018-07-03T06:12:54.733Z,18.14
2018-07-03T06:13:54.695Z,18.15
2018-07-03T06:14:54.722Z,18.23
2018-07-03T06:15:54.675Z,18.33
2018-07-03T06:16:54.656Z,18.36
2018-07-03T06:17:54.688Z,18.51
2018-07-03T06:18:54.625Z,18.62
2018-07-03T06:19:54.617Z,18.44
2018-07-03T06:20:54.598Z,18.50
2018-07-03T06:21:54.580Z,18.45
2018-07-03T06:22:54.568Z,18.62
2018-07-03T06:23:54.553Z,18.57
2018-07-03T06:24:54.545Z,18.60
2018-07-03T06:25:54.525Z,18.48
2018-07-03T06:26:54.517Z,18.45
2018-07-03T06:27:54.498Z,18.55
2018-07-03T06:28:54.536Z,18.60
2018-07-03T06:29:54.475Z,18.60
2018-07-03T06:30:54.457Z,18.66
2018-07-03T06:31:54.447Z,18.62
2018-07-03T06:32:54.433Z,18.65
2018-07-03T06:33:54.514Z,18.72
2018-07-03T06:34:54.399Z,18.67
2018-07-03T06:35:54.397Z,18.75
2018-07-03T06:36:54.369Z,18.75
2018-07-03T06:37:54.355Z,18.90
2018-07-03T06:38:54.350Z,18.90
2018-07-03T06:39:54.331Z,19.02
2018-07-03T06:40:54.311Z,19.08
2018-07-03T06:41:54.299Z,19.06
2018-07-03T06:42:54.307Z,19.07
2018-07-03T06:43:54.275Z,19.02
2018-07-03T06:44:54.272Z,19.07
2018-07-03T06:45:54.246Z,19.02
2018-07-03T06:46:54.237Z,19.14
2018-07-03T06:47:54.218Z,19.19
2018-07-03T06:48:54.206Z,19.21
2018-07-03T06:49:54.188Z,19.23
2018-07-03T06:50:54.176Z,19.23
2018-07-03T06:51:54.164Z,19.33
2018-07-03T06:52:54.250Z,19.41
2018-07-03T06:53:54.133Z,19.37
2018-07-03T06:54:54.125Z,19.44
2018-07-03T06:55:54.107Z,19.55
2018-07-03T06:56:54.093Z,19.55
2018-07-03T06:57:54.136Z,19.58
2018-07-03T06:58:54.066Z,19.55
2018-07-03T06:59:54.055Z,19.63
2018-07-03T07:00:54.102Z,19.66
2018-07-03T07:01:54.027Z,19.68
2018-07-03T07:02:54.020Z,19.73
2018-07-03T07:03:54.007Z,19.65
2018-07-03T07:04:53.983Z,19.66
2018-07-03T07:05:53.977Z,19.65
2018-07-03T07:06:53.955Z,19.68
2018-07-03T07:07:53.943Z,19.74
2018-07-03T07:08:54.002Z,19.81
2018-07-03T07:09:53.918Z,19.84
2018-07-03T07:10:53.903Z,19.84
2018-07-03T07:11:53.900Z,19.94
2018-07-03T07:12:53.876Z,20.02
2018-07-03T07:13:53.864Z,20.03
2018-07-03T07:14:53.896Z,20.14
2018-07-03T07:15:53.836Z,20.26
2018-07-03T07:16:53.974Z,20.31
2018-07-03T07:17:53.806Z,20.21
2018-07-03T07:18:53.797Z,20.36
2018-07-03T07:19:53.782Z,20.41
2018-07-03T07:20:53.770Z,20.41
2018-07-03T07:21:53.756Z,20.51
2018-07-03T07:22:53.748Z,20.64
2018-07-03T07:23:53.727Z,20.67
2018-07-03T07:24:53.713Z,20.70
2018-07-03T07:25:53.703Z,20.69
2018-07-03T07:26:53.690Z,20.64
2018-07-03T07:27:53.678Z,20.77
2018-07-03T07:28:53.658Z,20.80
2018-07-03T07:29:53.653Z,20.84
2018-07-03T07:30:53.643Z,20.85
2018-07-03T07:31:53.618Z,20.87
2018-07-03T07:32:53.619Z,20.91
2018-07-03T07:33:53.594Z,20.95
2018-07-03T07:34:53.580Z,21.03
2018-07-03T07:35:53.617Z,21.13
2018-07-03T07:36:53.555Z,21.27
2018-07-03T07:37:53.540Z,21.42
2018-07-03T07:38:53.525Z,21.52
2018-07-03T07:39:53.515Z,21.68
2018-07-03T07:40:53.704Z,21.67
2018-07-03T07:41:53.486Z,21.77
2018-07-03T07:42:53.476Z,21.96
2018-07-03T07:43:53.518Z,21.91
2018-07-03T07:44:53.448Z,21.98
2018-07-03T07:45:53.439Z,22.09
2018-07-03T07:46:53.420Z,22.14
2018-07-03T07:47:53.436Z,22.31
2018-07-03T07:48:53.398Z,22.28
2018-07-03T07:49:53.390Z,22.28
2018-07-03T07:50:53.372Z,22.39
2018-07-03T07:51:53.357Z,22.46
2018-07-03T07:52:53.348Z,22.39
2018-07-03T07:53:53.335Z,22.43
2018-07-03T07:54:53.341Z,22.36
2018-07-03T07:55:53.306Z,22.51
2018-07-03T07:56:53.302Z,22.60
2018-07-03T07:57:53.286Z,22.62
2018-07-03T07:58:53.277Z,22.54
2018-07-03T07:59:53.256Z,22.51
2018-07-03T08:00:53.247Z,22.40
2018-07-03T08:01:53.230Z,22.42
2018-07-03T08:02:53.223Z,22.35
2018-07-03T08:03:53.207Z,22.49
2018-07-03T08:04:53.193Z,22.51
2018-07-03T08:05:53.183Z,22.61
2018-07-03T08:06:53.177Z,22.76
2018-07-03T08:07:53.162Z,22.79
2018-07-03T08:08:53.147Z,22.85
2018-07-03T08:09:53.136Z,22.90
2018-07-03T08:10:53.125Z,22.95
2018-07-03T08:11:53.117Z,22.97
2018-07-03T08:12:53.102Z,22.79
2018-07-03T08:13:53.087Z,22.83
2018-07-03T08:14:53.073Z,22.82
2018-07-03T08:15:53.060Z,22.97
2018-07-03T08:16:53.049Z,23.01
2018-07-03T08:17:53.039Z,23.17
2018-07-03T08:18:53.028Z,23.20
2018-07-03T08:19:53.012Z,23.22
2018-07-03T08:20:53.001Z,23.40
2018-07-03T08:21:52.996Z,23.54
2018-07-03T08:22:52.976Z,23.75
2018-07-03T08:23:52.967Z,23.75
2018-07-03T08:24:52.954Z,23.85
2018-07-03T08:25:52.943Z,23.84
2018-07-03T08:26:52.935Z,23.87
2018-07-03T08:27:52.928Z,23.79
2018-07-03T08:28:52.905Z,23.84
2018-07-03T08:29:52.896Z,23.90
2018-07-03T08:30:52.883Z,23.88
2018-07-03T08:31:52.871Z,23.91
2018-07-03T08:32:52.864Z,23.84
2018-07-03T08:33:52.851Z,23.95
2018-07-03T08:34:52.843Z,23.93
2018-07-03T08:35:52.826Z,24.05
2018-07-03T08:36:52.839Z,24.06
2018-07-03T08:37:52.858Z,24.21
2018-07-03T08:38:52.794Z,23.98
2018-07-03T08:39:52.879Z,24.02
2018-07-03T08:40:52.787Z,24.08
2018-07-03T08:41:52.761Z,24.18
2018-07-03T08:42:52.818Z,24.10
2018-07-03T08:43:52.737Z,24.27
2018-07-03T08:44:52.727Z,24.24
2018-07-03T08:45:52.718Z,24.30
2018-07-03T08:46:52.703Z,24.39
2018-07-03T08:47:52.696Z,24.52
2018-07-03T08:48:52.687Z,24.73
2018-07-03T08:49:52.667Z,24.78
2018-07-03T08:50:52.658Z,24.62
2018-07-03T08:51:52.778Z,24.50
2018-07-03T08:52:52.637Z,24.47
2018-07-03T08:53:52.623Z,24.52
2018-07-03T08:54:52.616Z,24.57
2018-07-03T08:55:52.704Z,24.61
2018-07-03T08:56:52.600Z,24.60
2018-07-03T08:57:52.579Z,24.40
2018-07-03T08:58:52.621Z,24.28
2018-07-03T08:59:52.560Z,24.40
2018-07-03T09:00:52.651Z,24.50
2018-07-03T09:01:52.546Z,24.53
2018-07-03T09:02:52.529Z,24.71
2018-07-03T09:03:52.558Z,24.87
2018-07-03T09:04:52.506Z,24.96
2018-07-03T09:05:52.498Z,24.99
2018-07-03T09:06:52.481Z,25.08
2018-07-03T09:07:52.480Z,25.13
2018-07-03T09:08:52.465Z,25.13
2018-07-03T09:09:52.451Z,25.17
2018-07-03T09:10:52.436Z,25.43
2018-07-03T09:11:52.539Z,25.45
2018-07-03T09:12:52.413Z,25.51
2018-07-03T09:13:52.405Z,25.43
2018-07-03T09:14:52.393Z,25.32
2018-07-03T09:15:52.386Z,25.30
2018-07-03T09:16:52.378Z,25.33
2018-07-03T09:17:52.424Z,25.38
2018-07-03T09:18:52.353Z,25.42
2018-07-03T09:19:52.449Z,25.52
2018-07-03T09:20:52.333Z,25.52
2018-07-03T09:21:52.323Z,25.61
2018-07-03T09:22:52.311Z,25.69
2018-07-03T09:23:52.306Z,25.82
2018-07-03T09:24:52.307Z,25.88
2018-07-03T09:25:52.283Z,25.91
2018-07-03T09:26:52.267Z,25.91
2018-07-03T09:27:52.265Z,25.87
2018-07-03T09:28:52.247Z,25.91
2018-07-03T09:29:52.243Z,25.90
2018-07-03T09:30:52.229Z,25.97
2018-07-03T09:31:52.217Z,26.01
2018-07-03T09:32:52.204Z,26.25
2018-07-03T09:33:52.198Z,26.20
2018-07-03T09:34:52.189Z,26.20
2018-07-03T09:35:52.226Z,26.05
2018-07-03T09:36:52.167Z,25.90
2018-07-03T09:37:52.157Z,25.85
2018-07-03T09:38:52.147Z,25.88
2018-07-03T09:39:52.135Z,25.97
2018-07-03T09:40:52.131Z,26.09
2018-07-03T09:41:52.118Z,25.88
2018-07-03T09:42:52.109Z,25.91
2018-07-03T09:43:52.109Z,25.87
2018-07-03T09:44:52.089Z,25.88
2018-07-03T09:45:52.074Z,25.92
2018-07-03T09:46:52.073Z,25.88
2018-07-03T09:47:52.054Z,26.01
2018-07-03T09:48:52.084Z,26.15
2018-07-03T09:49:52.037Z,26.20
2018-07-03T09:50:52.024Z,26.15
2018-07-03T09:51:52.017Z,26.18
2018-07-03T09:52:52.007Z,26.06
2018-07-03T09:53:51.991Z,25.95
2018-07-03T09:54:52.149Z,26.12
2018-07-03T09:55:51.974Z,26.01
2018-07-03T09:56:51.964Z,26.09
2018-07-03T09:57:52.049Z,25.91
2018-07-03T09:58:51.944Z,25.94
2018-07-03T09:59:51.934Z,26.12
2018-07-03T10:00:51.921Z,26.29
2018-07-03T10:01:51.912Z,26.36
2018-07-03T10:02:51.901Z,26.35
2018-07-03T10:03:51.905Z,26.52
2018-07-03T10:04:51.891Z,26.57
2018-07-03T10:05:51.883Z,26.48
2018-07-03T10:06:51.874Z,26.51
2018-07-03T10:07:51.859Z,26.36
2018-07-03T10:08:51.842Z,26.12
2018-07-03T10:09:51.834Z,26.29
2018-07-03T10:10:51.824Z,26.18
2018-07-03T10:11:51.817Z,25.88
2018-07-03T10:12:51.942Z,25.90
2018-07-03T10:13:51.797Z,25.72
2018-07-03T10:14:51.788Z,25.77
2018-07-03T10:15:51.777Z,25.83
2018-07-03T10:16:51.767Z,26.05
2018-07-03T10:17:51.755Z,26.20
2018-07-03T10:18:51.752Z,26.33
2018-07-03T10:19:51.740Z,26.62
2018-07-03T10:20:51.727Z,26.63
2018-07-03T10:21:51.716Z,26.70
2018-07-03T10:22:51.707Z,26.58
2018-07-03T10:23:51.700Z,26.62
2018-07-03T10:24:51.688Z,26.66
2018-07-03T10:25:51.683Z,26.63
2018-07-03T10:26:51.670Z,26.72
2018-07-03T10:27:51.671Z,26.72
2018-07-03T10:28:51.650Z,26.85
2018-07-03T10:29:51.644Z,26.92
2018-07-03T10:30:51.636Z,26.72
2018-07-03T10:31:51.622Z,26.62
2018-07-03T10:32:51.611Z,26.65
2018-07-03T10:33:51.604Z,26.55
2018-07-03T10:34:51.591Z,26.80
2018-07-03T10:35:51.590Z,26.65
2018-07-03T10:36:51.577Z,26.73
2018-07-03T10:37:51.566Z,26.73
2018-07-03T10:38:51.556Z,26.81
2018-07-03T10:39:51.554Z,26.80
2018-07-03T10:40:51.538Z,26.80
2018-07-03T10:41:51.528Z,26.77
2018-07-03T10:42:51.527Z,26.77
2018-07-03T10:43:51.518Z,26.76
2018-07-03T10:44:51.506Z,26.82
2018-07-03T10:45:51.487Z,26.99
2018-07-03T10:46:51.480Z,26.99
2018-07-03T10:47:51.474Z,26.72
2018-07-03T10:48:51.490Z,26.60
2018-07-03T10:49:51.449Z,26.69
2018-07-03T10:50:51.448Z,26.80
2018-07-03T10:51:51.431Z,26.87
2018-07-03T10:52:51.421Z,27.00
2018-07-03T10:53:51.413Z,26.58
2018-07-03T10:54:51.407Z,26.58
2018-07-03T10:55:51.393Z,26.65
2018-07-03T10:56:51.394Z,26.80
2018-07-03T10:57:51.379Z,27.06
2018-07-03T10:58:51.366Z,27.25
2018-07-03T10:59:51.364Z,27.37
2018-07-03T11:00:51.350Z,27.40
2018-07-03T11:01:51.352Z,27.37
2018-07-03T11:02:51.328Z,27.06
2018-07-03T11:03:51.323Z,26.87
2018-07-03T11:04:51.309Z,26.76
2018-07-03T11:05:51.369Z,26.87
2018-07-03T11:06:51.292Z,27.00
2018-07-03T11:07:51.288Z,27.12
2018-07-03T11:08:51.322Z,27.14
2018-07-03T11:09:51.269Z,27.21
2018-07-03T11:10:51.269Z,27.28
2018-07-03T11:11:51.246Z,27.32
2018-07-03T11:12:51.243Z,27.46
2018-07-03T11:13:51.309Z,27.31
2018-07-03T11:14:51.219Z,27.29
2018-07-03T11:15:51.207Z,27.37
2018-07-03T11:16:51.197Z,27.47
2018-07-03T11:17:51.188Z,27.62
2018-07-03T11:18:51.180Z,27.72
2018-07-03T11:19:51.257Z,27.82
2018-07-03T11:20:51.165Z,27.92
2018-07-03T11:21:51.161Z,27.99
2018-07-03T11:22:51.141Z,28.04
2018-07-03T11:23:51.147Z,28.12
2018-07-03T11:24:51.178Z,28.04
2018-07-03T11:25:51.118Z,28.09
2018-07-03T11:26:51.110Z,27.92
2018-07-03T11:27:51.101Z,27.82
2018-07-03T11:28:51.088Z,27.72
2018-07-03T11:29:51.081Z,27.55
2018-07-03T11:30:51.082Z,27.67
2018-07-03T11:31:51.062Z,27.67
2018-07-03T11:32:51.056Z,27.69
2018-07-03T11:33:51.047Z,27.65
2018-07-03T11:34:51.036Z,27.50
2018-07-03T11:35:51.027Z,27.28
2018-07-03T11:36:51.016Z,27.00
2018-07-03T11:37:51.012Z,26.99
2018-07-03T11:38:51.001Z,27.06
2018-07-03T11:39:50.989Z,27.32
2018-07-03T11:40:50.988Z,27.55
2018-07-03T11:41:50.977Z,27.79
2018-07-03T11:42:50.967Z,27.88
2018-07-03T11:43:50.952Z,28.04
2018-07-03T11:44:51.059Z,28.21
2018-07-03T11:45:50.937Z,28.39
2018-07-03T11:46:50.936Z,28.55
2018-07-03T11:47:50.929Z,28.61
2018-07-03T11:48:50.910Z,28.66
2018-07-03T11:49:50.909Z,28.76
2018-07-03T11:50:50.901Z,28.78
2018-07-03T11:51:50.891Z,28.61
2018-07-03T11:52:50.879Z,28.59
2018-07-03T11:53:50.864Z,28.58
2018-07-03T11:54:50.856Z,28.64
2018-07-03T11:55:50.847Z,28.61
2018-07-03T11:56:50.840Z,28.59
2018-07-03T11:57:50.826Z,28.56
2018-07-03T11:58:50.925Z,28.48
2018-07-03T11:59:50.810Z,28.37
2018-07-03T12:00:50.804Z,28.40
2018-07-03T12:01:50.808Z,28.51
2018-07-03T12:02:50.786Z,28.48
2018-07-03T12:03:50.776Z,28.59
2018-07-03T12:04:50.783Z,28.70
2018-07-03T12:05:50.758Z,28.71
2018-07-03T12:06:50.758Z,28.74
2018-07-03T12:07:50.740Z,28.81
2018-07-03T12:08:50.732Z,28.90
2018-07-03T12:09:50.724Z,28.88
2018-07-03T12:10:50.717Z,28.78
2018-07-03T12:11:50.709Z,28.68
2018-07-03T12:12:50.700Z,28.70
2018-07-03T12:13:50.688Z,28.71
2018-07-03T12:14:50.745Z,28.62
2018-07-03T12:15:50.669Z,28.55
2018-07-03T12:16:50.661Z,28.40
2018-07-03T12:17:50.660Z,28.40
2018-07-03T12:18:50.644Z,28.07
2018-07-03T12:19:50.689Z,28.04
2018-07-03T12:20:50.629Z,28.30
2018-07-03T12:21:50.620Z,28.31
2018-07-03T12:22:50.609Z,28.43
2018-07-03T12:23:50.609Z,28.58
2018-07-03T12:24:50.590Z,28.61
2018-07-03T12:25:50.587Z,28.59
2018-07-03T12:26:50.580Z,28.70
2018-07-03T12:27:50.576Z,28.86
2018-07-03T12:28:50.588Z,29.08
2018-07-03T12:29:50.550Z,28.98
2018-07-03T12:30:50.640Z,29.08
2018-07-03T12:31:50.539Z,28.85
2018-07-03T12:32:50.528Z,28.68
2018-07-03T12:33:50.516Z,28.31
2018-07-03T12:34:50.516Z,28.34
2018-07-03T12:35:50.498Z,28.12
2018-07-03T12:36:50.490Z,28.09
2018-07-03T12:37:50.482Z,28.27
2018-07-03T12:38:50.476Z,28.49
2018-07-03T12:39:50.464Z,28.58
2018-07-03T12:40:50.461Z,28.55
2018-07-03T12:41:50.448Z,28.66
2018-07-03T12:42:50.438Z,28.54
2018-07-03T12:43:50.429Z,28.61
2018-07-03T12:44:50.419Z,28.59
2018-07-03T12:45:50.417Z,28.58
2018-07-03T12:46:50.405Z,28.29
2018-07-03T12:47:50.394Z,28.30
2018-07-03T12:48:50.396Z,28.31
2018-07-03T12:49:50.483Z,28.25
2018-07-03T12:50:50.380Z,28.37
2018-07-03T12:51:50.412Z,28.52